createdAt,value
2022-12-17T00:02:28.563Z,17.52
2022-12-17T00:22:34.244Z,15.65
2022-12-17T00:42:40.081Z,16.59
2022-12-17T01:02:46.008Z,16.96
2022-12-17T01:22:51.652Z,17.47
2022-12-17T01:42:57.443Z,16.69
2022-12-17T02:03:03.450Z,17.62
2022-12-17T02:23:09.111Z,17.53
2022-12-17T02:43:14.921Z,16.45
2022-12-17T03:03:20.801Z,15.68
2022-12-17T03:23:26.498Z,16.45
2022-12-17T03:43:32.613Z,16.45
2022-12-17T04:03:38.281Z,15.09
2022-12-17T04:23:43.140Z,15.19
2022-12-17T04:43:48.960Z,15.40
2022-12-17T05:03:54.862Z,15.02
2022-12-17T05:24:00.597Z,14.66
2022-12-17T05:44:06.498Z,14.60
2022-12-17T06:04:12.433Z,14.78
2022-12-17T06:24:18.100Z,12.73
2022-12-17T06:44:23.983Z,14.16
2022-12-17T07:04:30.015Z,16.41
2022-12-17T07:24:35.830Z,15.34
2022-12-17T07:44:41.610Z,16.59
2022-12-17T08:04:47.370Z,15.76
2022-12-17T08:24:53.120Z,16.77
2022-12-17T08:44:58.871Z,17.25
2022-12-17T09:05:04.701Z,17.08
2022-12-17T09:25:10.404Z,16.05
2022-12-17T09:45:16.210Z,16.31
2022-12-17T10:05:21.988Z,15.30
2022-12-17T10:25:27.759Z,16.11
2022-12-17T10:45:33.548Z,16.09
2022-12-17T11:05:39.386Z,14.90
2022-12-17T11:25:45.135Z,15.15
2022-12-17T11:45:50.967Z,14.50
2022-12-17T12:05:57.095Z,13.00
2022-12-17T12:26:02.079Z,12.93
2022-12-17T12:46:07.951Z,12.39
2022-12-17T13:06:13.651Z,11.48
2022-12-17T13:26:19.499Z,11.98
2022-12-17T13:46:25.352Z,11.59
2022-12-17T14:06:31.193Z,11.64
2022-12-17T14:26:36.965Z,11.06
2022-12-17T14:46:42.934Z,10.92
2022-12-17T15:06:49.770Z,9.76
2022-12-17T15:26:55.527Z,8.77
2022-12-17T15:47:01.275Z,7.32
2022-12-17T16:07:07.007Z,8.09
2022-12-17T16:27:12.809Z,7.02
2022-12-17T16:47:18.725Z,10.32
2022-12-17T17:07:24.516Z,9.05
2022-12-17T17:27:30.351Z,9.03
2022-12-17T17:47:36.272Z,9.17
2022-12-17T18:07:42.137Z,9.12
2022-12-17T18:27:47.932Z,10.73
2022-12-17T18:47:53.718Z,9.29
2022-12-17T19:08:00.582Z,10.55
2022-12-17T19:28:06.371Z,14.24
2022-12-17T19:48:12.159Z,26.99
2022-12-17T20:08:22.280Z,36.62
2022-12-17T20:28:22.823Z,47.17
2022-12-17T20:48:28.720Z,33.20
2022-12-17T21:08:34.514Z,31.92
2022-12-17T21:28:40.619Z,32.30
2022-12-17T21:48:46.218Z,31.52
2022-12-17T22:08:53.833Z,31.10
2022-12-17T22:28:56.504Z,27.30
2022-12-17T22:49:02.320Z,28.61
2022-12-17T23:09:08.149Z,24.67
2022-12-17T23:29:19.155Z,21.56
2022-12-17T23:49:19.433Z,24.79
